OEFVS LQBK-EDDK
Flight info
| Callsign | OEFVS |
|---|---|
| Flight time | 1h 38m |
| Altitude | 32000 |
| Route | KOMAR DCT DEVUL DCT GORPA DCT BERTA DCT BADIT DCT NEU DCT AKANU L603 TAKUT DCT CHA GULKO1B |
| Aircraft | P180/L-SBDFGM3RWXY/LB1 |
Departure
| Time | 2026-05-05 14:47 |
|---|---|
| Airport | Banja Luka International Airport (LQBK) |
Arrival
| Time | 2026-05-05 16:25 |
|---|---|
| Airport | Cologne Bonn Airport (EDDK) |
| Time | Latitude | Longitude | Altitude | Speed | Heading |
|---|---|---|---|---|---|
| 2026-05-05 14:40 | 44.93288 | 17.30309 | 394 ft | 0 kts | 256° |
| 2026-05-05 14:43 | 44.93288 | 17.30308 | 394 ft | 1 kts | 262° |
| 2026-05-05 14:44 | 44.93289 | 17.30279 | 394 ft | 5 kts | 268° |
| 2026-05-05 14:44 | 44.93272 | 17.30229 | 394 ft | 6 kts | 205° |
| 2026-05-05 14:44 | 44.93221 | 17.30222 | 395 ft | 9 kts | 206° |
| 2026-05-05 14:44 | 44.93165 | 17.30172 | 395 ft | 10 kts | 214° |
| 2026-05-05 14:45 | 44.93098 | 17.30098 | 397 ft | 14 kts | 238° |
| 2026-05-05 14:45 | 44.93112 | 17.30022 | 398 ft | 6 kts | 328° |
| 2026-05-05 14:45 | 44.93135 | 17.30012 | 398 ft | 0 kts | 349° |
| 2026-05-05 14:46 | 44.93238 | 17.29985 | 396 ft | 51 kts | 349° |
| 2026-05-05 14:46 | 44.93813 | 17.29836 | 386 ft | 111 kts | 349° |
| 2026-05-05 14:46 | 44.94647 | 17.29637 | 639 ft | 126 kts | 347° |
| 2026-05-05 14:46 | 44.95579 | 17.29389 | 999 ft | 151 kts | 343° |
| 2026-05-05 14:47 | 44.96693 | 17.29079 | 1482 ft | 173 kts | 344° |
| 2026-05-05 14:47 | 44.97899 | 17.28772 | 2158 ft | 180 kts | 343° |
| 2026-05-05 14:47 | 44.99141 | 17.28452 | 2921 ft | 183 kts | 345° |
| 2026-05-05 14:47 | 45.00403 | 17.28128 | 3685 ft | 188 kts | 344° |
| 2026-05-05 14:48 | 45.01759 | 17.27738 | 4062 ft | 212 kts | 341° |
| 2026-05-05 14:48 | 45.02986 | 17.26584 | 4420 ft | 214 kts | 300° |
| 2026-05-05 14:48 | 45.03660 | 17.24750 | 5035 ft | 211 kts | 289° |
| 2026-05-05 14:48 | 45.04264 | 17.22836 | 5585 ft | 214 kts | 289° |
| 2026-05-05 14:49 | 45.04783 | 17.20868 | 6116 ft | 213 kts | 276° |
| 2026-05-05 14:49 | 45.04933 | 17.18791 | 6630 ft | 212 kts | 269° |
| 2026-05-05 14:49 | 45.05057 | 17.16696 | 7101 ft | 217 kts | 272° |
| 2026-05-05 14:49 | 45.05290 | 17.14576 | 7576 ft | 220 kts | 274° |
| 2026-05-05 14:50 | 45.05550 | 17.12438 | 8079 ft | 221 kts | 275° |
| 2026-05-05 14:50 | 45.05794 | 17.10277 | 8568 ft | 224 kts | 274° |
| 2026-05-05 14:50 | 45.06035 | 17.08092 | 9074 ft | 224 kts | 275° |
| 2026-05-05 14:50 | 45.06282 | 17.05929 | 9540 ft | 226 kts | 274° |
| 2026-05-05 14:51 | 45.06519 | 17.03728 | 10004 ft | 226 kts | 271° |
| 2026-05-05 14:51 | 45.06756 | 17.01518 | 10405 ft | 228 kts | 273° |
| 2026-05-05 14:51 | 45.07029 | 16.99310 | 10808 ft | 230 kts | 276° |
| 2026-05-05 14:51 | 45.07268 | 16.97084 | 11321 ft | 228 kts | 274° |
| 2026-05-05 14:52 | 45.07508 | 16.94850 | 11773 ft | 231 kts | 276° |
| 2026-05-05 14:52 | 45.08167 | 16.92762 | 12287 ft | 238 kts | 301° |
| 2026-05-05 14:52 | 45.09099 | 16.90822 | 12748 ft | 238 kts | 298° |
| 2026-05-05 14:52 | 45.09973 | 16.88826 | 13224 ft | 239 kts | 297° |
| 2026-05-05 14:53 | 45.10857 | 16.86830 | 13662 ft | 240 kts | 298° |
| 2026-05-05 14:53 | 45.11768 | 16.84830 | 14047 ft | 243 kts | 298° |
| 2026-05-05 14:53 | 45.12677 | 16.82810 | 14438 ft | 244 kts | 298° |
| 2026-05-05 14:53 | 45.13588 | 16.80781 | 14813 ft | 245 kts | 298° |
| 2026-05-05 14:54 | 45.14419 | 16.78932 | 15155 ft | 245 kts | 297° |
| 2026-05-05 14:54 | 45.15337 | 16.76891 | 15508 ft | 246 kts | 297° |
| 2026-05-05 14:54 | 45.16258 | 16.74839 | 15890 ft | 246 kts | 298° |
| 2026-05-05 14:54 | 45.17176 | 16.72791 | 16263 ft | 246 kts | 298° |
| 2026-05-05 14:55 | 45.18094 | 16.70739 | 16583 ft | 247 kts | 298° |
| 2026-05-05 14:55 | 45.19015 | 16.68679 | 16914 ft | 248 kts | 298° |
| 2026-05-05 14:55 | 45.19944 | 16.66607 | 17207 ft | 250 kts | 298° |
| 2026-05-05 14:55 | 45.20875 | 16.64523 | 17513 ft | 250 kts | 298° |
| 2026-05-05 14:56 | 45.21797 | 16.62457 | 17800 ft | 251 kts | 298° |
| 2026-05-05 14:56 | 45.22737 | 16.60353 | 18078 ft | 253 kts | 298° |
| 2026-05-05 14:56 | 45.23680 | 16.58238 | 18408 ft | 254 kts | 298° |
| 2026-05-05 14:56 | 45.24624 | 16.56121 | 18726 ft | 255 kts | 298° |
| 2026-05-05 14:57 | 45.25572 | 16.53989 | 19030 ft | 256 kts | 298° |
| 2026-05-05 14:57 | 45.26526 | 16.51847 | 19340 ft | 257 kts | 298° |
| 2026-05-05 14:57 | 45.27485 | 16.49693 | 19660 ft | 258 kts | 298° |
| 2026-05-05 14:57 | 45.28444 | 16.47534 | 19968 ft | 259 kts | 298° |
| 2026-05-05 14:58 | 45.29413 | 16.45353 | 20289 ft | 261 kts | 298° |
| 2026-05-05 14:58 | 45.30381 | 16.43167 | 20615 ft | 262 kts | 299° |
| 2026-05-05 14:58 | 45.31361 | 16.40955 | 20891 ft | 265 kts | 299° |
| 2026-05-05 14:58 | 45.32335 | 16.38760 | 21210 ft | 267 kts | 299° |
| 2026-05-05 14:59 | 45.33324 | 16.36525 | 21538 ft | 268 kts | 299° |
| 2026-05-05 14:59 | 45.34321 | 16.34275 | 21868 ft | 270 kts | 299° |
| 2026-05-05 14:59 | 45.35322 | 16.32007 | 22189 ft | 271 kts | 299° |
| 2026-05-05 14:59 | 45.36327 | 16.29730 | 22529 ft | 273 kts | 299° |
| 2026-05-05 15:00 | 45.37338 | 16.27439 | 22874 ft | 274 kts | 299° |
| 2026-05-05 15:00 | 45.38012 | 16.25911 | 23103 ft | 275 kts | 299° |
| 2026-05-05 15:00 | 45.39379 | 16.22808 | 23558 ft | 278 kts | 299° |
| 2026-05-05 15:00 | 45.40409 | 16.20466 | 23865 ft | 279 kts | 299° |
| 2026-05-05 15:01 | 45.41437 | 16.18133 | 24260 ft | 276 kts | 299° |
| 2026-05-05 15:01 | 45.42449 | 16.15831 | 24694 ft | 273 kts | 298° |
| 2026-05-05 15:01 | 45.43456 | 16.13531 | 25068 ft | 273 kts | 298° |
| 2026-05-05 15:01 | 45.44463 | 16.11238 | 25458 ft | 273 kts | 298° |
| 2026-05-05 15:02 | 45.45458 | 16.08972 | 25801 ft | 274 kts | 297° |
| 2026-05-05 15:02 | 45.46464 | 16.06669 | 26207 ft | 274 kts | 297° |
| 2026-05-05 15:02 | 45.47472 | 16.04365 | 26632 ft | 273 kts | 297° |
| 2026-05-05 15:02 | 45.48480 | 16.02065 | 27068 ft | 273 kts | 297° |
| 2026-05-05 15:03 | 45.49481 | 15.99772 | 27510 ft | 272 kts | 297° |
| 2026-05-05 15:03 | 45.50483 | 15.97479 | 28008 ft | 272 kts | 297° |
| 2026-05-05 15:03 | 45.51480 | 15.95189 | 28520 ft | 272 kts | 297° |
| 2026-05-05 15:03 | 45.52474 | 15.92906 | 29055 ft | 271 kts | 297° |
| 2026-05-05 15:04 | 45.53474 | 15.90620 | 29566 ft | 271 kts | 297° |
| 2026-05-05 15:04 | 45.54465 | 15.88338 | 30057 ft | 270 kts | 297° |
| 2026-05-05 15:04 | 45.55455 | 15.86060 | 30492 ft | 269 kts | 297° |
| 2026-05-05 15:04 | 45.56438 | 15.83796 | 30937 ft | 267 kts | 297° |
| 2026-05-05 15:05 | 45.58369 | 15.79347 | 31830 ft | 263 kts | 297° |
| 2026-05-05 15:05 | 45.59359 | 15.77059 | 31970 ft | 274 kts | 297° |
| 2026-05-05 15:05 | 45.60370 | 15.74714 | 31977 ft | 288 kts | 298° |
| 2026-05-05 15:06 | 45.61450 | 15.72224 | 31981 ft | 301 kts | 298° |
| 2026-05-05 15:06 | 45.62574 | 15.69626 | 31988 ft | 313 kts | 298° |
| 2026-05-05 15:06 | 45.63740 | 15.66927 | 31987 ft | 325 kts | 298° |
| 2026-05-05 15:07 | 45.66183 | 15.61263 | 31984 ft | 344 kts | 298° |
| 2026-05-05 15:07 | 45.68754 | 15.55292 | 31984 ft | 360 kts | 298° |
| 2026-05-05 15:08 | 45.71423 | 15.49075 | 31977 ft | 372 kts | 298° |
| 2026-05-05 15:08 | 45.74161 | 15.42686 | 31979 ft | 380 kts | 298° |
| 2026-05-05 15:09 | 45.77149 | 15.36370 | 31970 ft | 388 kts | 308° |
| 2026-05-05 15:09 | 45.81218 | 15.31181 | 31971 ft | 396 kts | 321° |
| 2026-05-05 15:10 | 45.85637 | 15.26475 | 31975 ft | 399 kts | 320° |
| 2026-05-05 15:10 | 45.90123 | 15.21719 | 31977 ft | 402 kts | 320° |
| 2026-05-05 15:11 | 45.94608 | 15.16918 | 31989 ft | 402 kts | 320° |
| 2026-05-05 15:11 | 45.99115 | 15.12119 | 31986 ft | 404 kts | 320° |
| 2026-05-05 15:12 | 46.03630 | 15.07267 | 31992 ft | 405 kts | 320° |
| 2026-05-05 15:12 | 46.08160 | 15.02421 | 31993 ft | 406 kts | 320° |
| 2026-05-05 15:13 | 46.12687 | 14.97535 | 31992 ft | 406 kts | 320° |
| 2026-05-05 15:13 | 46.17205 | 14.92680 | 31995 ft | 404 kts | 320° |
| 2026-05-05 15:14 | 46.21689 | 14.87834 | 31999 ft | 401 kts | 319° |
| 2026-05-05 15:14 | 46.26116 | 14.83035 | 32005 ft | 399 kts | 319° |
| 2026-05-05 15:15 | 46.30546 | 14.78232 | 32010 ft | 397 kts | 319° |
| 2026-05-05 15:15 | 46.34966 | 14.73452 | 32007 ft | 395 kts | 318° |
| 2026-05-05 15:16 | 46.39335 | 14.68657 | 32006 ft | 393 kts | 319° |
| 2026-05-05 15:16 | 46.43709 | 14.63915 | 31985 ft | 392 kts | 319° |
| 2026-05-05 15:17 | 46.48201 | 14.59413 | 31983 ft | 392 kts | 320° |
| 2026-05-05 15:17 | 46.52619 | 14.54752 | 31979 ft | 393 kts | 322° |
| 2026-05-05 15:18 | 46.57139 | 14.50340 | 31975 ft | 393 kts | 321° |
| 2026-05-05 15:18 | 46.61609 | 14.45735 | 31975 ft | 394 kts | 322° |
| 2026-05-05 15:19 | 46.66124 | 14.41214 | 31973 ft | 394 kts | 321° |
| 2026-05-05 15:19 | 46.70617 | 14.36627 | 31973 ft | 395 kts | 321° |
| 2026-05-05 15:20 | 46.75155 | 14.32043 | 31971 ft | 396 kts | 321° |
| 2026-05-05 15:20 | 46.79668 | 14.27430 | 31964 ft | 397 kts | 321° |
| 2026-05-05 15:21 | 46.84173 | 14.22844 | 31952 ft | 397 kts | 321° |
| 2026-05-05 15:21 | 46.88698 | 14.18213 | 31943 ft | 397 kts | 321° |
| 2026-05-05 15:22 | 46.93229 | 14.13577 | 31926 ft | 397 kts | 321° |
| 2026-05-05 15:22 | 46.97754 | 14.08916 | 31918 ft | 398 kts | 321° |
| 2026-05-05 15:23 | 47.02297 | 14.04254 | 31907 ft | 399 kts | 321° |
| 2026-05-05 15:23 | 47.06836 | 13.99567 | 31908 ft | 399 kts | 321° |
| 2026-05-05 15:24 | 47.11387 | 13.94861 | 31904 ft | 399 kts | 321° |
| 2026-05-05 15:24 | 47.15930 | 13.90170 | 31890 ft | 399 kts | 321° |
| 2026-05-05 15:25 | 47.20464 | 13.85452 | 31890 ft | 400 kts | 321° |
| 2026-05-05 15:25 | 47.25032 | 13.80714 | 31871 ft | 402 kts | 321° |
| 2026-05-05 15:26 | 47.29604 | 13.75936 | 31866 ft | 404 kts | 321° |
| 2026-05-05 15:26 | 47.34199 | 13.71145 | 31844 ft | 404 kts | 321° |
| 2026-05-05 15:27 | 47.38793 | 13.66330 | 31843 ft | 405 kts | 321° |
| 2026-05-05 15:27 | 47.43370 | 13.61533 | 31829 ft | 407 kts | 321° |
| 2026-05-05 15:28 | 47.47990 | 13.56671 | 31814 ft | 408 kts | 321° |
| 2026-05-05 15:28 | 47.52661 | 13.51812 | 31787 ft | 411 kts | 321° |
| 2026-05-05 15:29 | 47.57268 | 13.46807 | 31789 ft | 411 kts | 321° |
| 2026-05-05 15:29 | 47.61184 | 13.42799 | 31779 ft | 411 kts | 321° |
| 2026-05-05 15:30 | 47.66576 | 13.36983 | 31773 ft | 410 kts | 321° |
| 2026-05-05 15:30 | 47.71218 | 13.32115 | 31759 ft | 411 kts | 321° |
| 2026-05-05 15:31 | 47.75102 | 13.27937 | 31761 ft | 411 kts | 321° |
| 2026-05-05 15:31 | 47.79735 | 13.23012 | 31758 ft | 411 kts | 321° |
| 2026-05-05 15:32 | 47.84374 | 13.18038 | 31752 ft | 410 kts | 320° |
| 2026-05-05 15:32 | 47.89006 | 13.13077 | 31759 ft | 410 kts | 320° |
| 2026-05-05 15:33 | 47.93629 | 13.08105 | 31750 ft | 410 kts | 320° |
| 2026-05-05 15:33 | 47.98271 | 13.03111 | 31745 ft | 412 kts | 320° |
| 2026-05-05 15:34 | 48.02919 | 12.98079 | 31747 ft | 412 kts | 320° |
| 2026-05-05 15:34 | 48.07542 | 12.93092 | 31754 ft | 412 kts | 320° |
| 2026-05-05 15:35 | 48.12179 | 12.88048 | 31760 ft | 412 kts | 320° |
| 2026-05-05 15:35 | 48.16711 | 12.82780 | 31744 ft | 410 kts | 311° |
| 2026-05-05 15:35 | 48.18513 | 12.79513 | 31736 ft | 404 kts | 300° |
| 2026-05-05 15:36 | 48.19860 | 12.75851 | 31736 ft | 399 kts | 289° |
| 2026-05-05 15:36 | 48.21780 | 12.68079 | 31735 ft | 398 kts | 286° |
| 2026-05-05 15:37 | 48.24272 | 12.60602 | 31737 ft | 404 kts | 296° |
| 2026-05-05 15:37 | 48.26959 | 12.53228 | 31737 ft | 401 kts | 291° |
| 2026-05-05 15:38 | 48.29436 | 12.45710 | 31739 ft | 403 kts | 294° |
| 2026-05-05 15:38 | 48.32062 | 12.38284 | 31747 ft | 402 kts | 292° |
| 2026-05-05 15:39 | 48.34570 | 12.30775 | 31746 ft | 402 kts | 293° |
| 2026-05-05 15:39 | 48.37153 | 12.23322 | 31754 ft | 402 kts | 292° |
| 2026-05-05 15:40 | 48.39679 | 12.15814 | 31773 ft | 402 kts | 292° |
| 2026-05-05 15:40 | 48.42238 | 12.08316 | 31797 ft | 403 kts | 292° |
| 2026-05-05 15:41 | 48.44772 | 12.00781 | 31798 ft | 404 kts | 292° |
| 2026-05-05 15:41 | 48.47320 | 11.93239 | 31803 ft | 404 kts | 292° |
| 2026-05-05 15:42 | 48.49856 | 11.85676 | 31803 ft | 404 kts | 292° |
| 2026-05-05 15:42 | 48.52396 | 11.78110 | 31799 ft | 405 kts | 292° |
| 2026-05-05 15:43 | 48.54930 | 11.70511 | 31800 ft | 406 kts | 292° |
| 2026-05-05 15:43 | 48.57472 | 11.62883 | 31804 ft | 407 kts | 292° |
| 2026-05-05 15:44 | 48.59998 | 11.55271 | 31807 ft | 408 kts | 292° |
| 2026-05-05 15:44 | 48.62542 | 11.47594 | 31808 ft | 408 kts | 292° |
| 2026-05-05 15:45 | 48.65077 | 11.39899 | 31809 ft | 409 kts | 291° |
| 2026-05-05 15:45 | 48.67622 | 11.32179 | 31808 ft | 411 kts | 292° |
| 2026-05-05 15:46 | 48.70170 | 11.24400 | 31809 ft | 413 kts | 292° |
| 2026-05-05 15:46 | 48.73352 | 11.17089 | 31797 ft | 422 kts | 308° |
| 2026-05-05 15:47 | 48.77582 | 11.10944 | 31792 ft | 424 kts | 313° |
| 2026-05-05 15:47 | 48.81539 | 11.04366 | 31796 ft | 421 kts | 306° |
| 2026-05-05 15:48 | 48.85569 | 10.97870 | 31815 ft | 424 kts | 311° |
| 2026-05-05 15:48 | 48.89577 | 10.91290 | 31833 ft | 424 kts | 308° |
| 2026-05-05 15:49 | 48.93598 | 10.84712 | 31840 ft | 425 kts | 310° |
| 2026-05-05 15:49 | 48.97613 | 10.78126 | 31844 ft | 424 kts | 308° |
| 2026-05-05 15:50 | 49.01617 | 10.71525 | 31860 ft | 425 kts | 310° |
| 2026-05-05 15:50 | 49.05681 | 10.64993 | 31846 ft | 425 kts | 313° |
| 2026-05-05 15:51 | 49.09898 | 10.58676 | 31866 ft | 425 kts | 311° |
| 2026-05-05 15:51 | 49.14103 | 10.52491 | 32844 ft | 401 kts | 314° |
| 2026-05-05 15:51 | 49.16050 | 10.49658 | 34118 ft | 371 kts | 311° |
| 2026-05-05 15:52 | 49.17801 | 10.46977 | 35168 ft | 346 kts | 310° |
| 2026-05-05 15:52 | 49.19492 | 10.44413 | 35595 ft | 341 kts | 311° |
| 2026-05-05 15:52 | 49.21175 | 10.41929 | 35826 ft | 341 kts | 311° |
| 2026-05-05 15:53 | 49.24513 | 10.36694 | 36130 ft | 342 kts | 304° |
| 2026-05-05 15:53 | 49.26005 | 10.33876 | 36413 ft | 340 kts | 303° |
| 2026-05-05 15:53 | 49.27476 | 10.31062 | 36657 ft | 338 kts | 303° |
| 2026-05-05 15:53 | 49.28972 | 10.28277 | 36907 ft | 338 kts | 304° |
| 2026-05-05 15:54 | 49.30484 | 10.25475 | 37148 ft | 337 kts | 304° |
| 2026-05-05 15:54 | 49.31948 | 10.22728 | 37320 ft | 337 kts | 304° |
| 2026-05-05 15:54 | 49.33425 | 10.19945 | 37551 ft | 336 kts | 304° |
| 2026-05-05 15:54 | 49.34904 | 10.17166 | 37783 ft | 335 kts | 304° |
| 2026-05-05 15:55 | 49.36384 | 10.14383 | 37829 ft | 340 kts | 304° |
| 2026-05-05 15:55 | 49.39393 | 10.08654 | 37828 ft | 349 kts | 303° |
| 2026-05-05 15:56 | 49.42410 | 10.02709 | 37831 ft | 356 kts | 303° |
| 2026-05-05 15:56 | 49.45513 | 9.96683 | 37835 ft | 362 kts | 303° |
| 2026-05-05 15:57 | 49.48638 | 9.90555 | 37837 ft | 366 kts | 303° |
| 2026-05-05 15:57 | 49.51785 | 9.84386 | 37839 ft | 370 kts | 303° |
| 2026-05-05 15:58 | 49.54976 | 9.78111 | 37837 ft | 373 kts | 303° |
| 2026-05-05 15:58 | 49.58199 | 9.71759 | 37840 ft | 380 kts | 303° |
| 2026-05-05 15:59 | 49.61473 | 9.65252 | 37845 ft | 387 kts | 303° |
| 2026-05-05 15:59 | 49.64820 | 9.58728 | 37826 ft | 387 kts | 304° |
| 2026-05-05 16:00 | 49.68082 | 9.52165 | 37825 ft | 384 kts | 303° |
| 2026-05-05 16:00 | 49.71362 | 9.45667 | 37843 ft | 383 kts | 304° |
| 2026-05-05 16:01 | 49.74618 | 9.39158 | 37839 ft | 382 kts | 303° |
| 2026-05-05 16:01 | 49.77855 | 9.32689 | 37836 ft | 382 kts | 303° |
| 2026-05-05 16:02 | 49.81103 | 9.26175 | 37830 ft | 382 kts | 303° |
| 2026-05-05 16:02 | 49.82744 | 9.22867 | 37240 ft | 392 kts | 303° |
| 2026-05-05 16:02 | 49.84428 | 9.19483 | 36492 ft | 401 kts | 303° |
| 2026-05-05 16:02 | 49.86150 | 9.16023 | 35773 ft | 409 kts | 303° |
| 2026-05-05 16:03 | 49.87893 | 9.12512 | 35067 ft | 412 kts | 303° |
| 2026-05-05 16:03 | 49.89644 | 9.08980 | 34400 ft | 413 kts | 303° |
| 2026-05-05 16:03 | 49.91395 | 9.05447 | 33717 ft | 413 kts | 304° |
| 2026-05-05 16:03 | 49.93346 | 9.02148 | 32940 ft | 417 kts | 313° |
| 2026-05-05 16:04 | 49.95562 | 8.99224 | 32189 ft | 418 kts | 319° |
| 2026-05-05 16:04 | 49.97892 | 8.96504 | 31464 ft | 420 kts | 321° |
| 2026-05-05 16:04 | 50.00191 | 8.93720 | 30750 ft | 419 kts | 318° |
| 2026-05-05 16:04 | 50.02377 | 8.90724 | 30062 ft | 418 kts | 316° |
| 2026-05-05 16:05 | 50.04551 | 8.87741 | 29295 ft | 415 kts | 318° |
| 2026-05-05 16:05 | 50.06761 | 8.84966 | 28527 ft | 412 kts | 320° |
| 2026-05-05 16:05 | 50.09025 | 8.82157 | 27751 ft | 408 kts | 318° |
| 2026-05-05 16:05 | 50.11168 | 8.79297 | 27021 ft | 404 kts | 316° |
| 2026-05-05 16:06 | 50.13251 | 8.76467 | 26327 ft | 400 kts | 317° |
| 2026-05-05 16:06 | 50.15367 | 8.73747 | 25834 ft | 391 kts | 319° |
| 2026-05-05 16:06 | 50.17458 | 8.71103 | 25326 ft | 383 kts | 318° |
| 2026-05-05 16:06 | 50.19469 | 8.68435 | 24824 ft | 376 kts | 317° |
| 2026-05-05 16:07 | 50.21438 | 8.65783 | 24331 ft | 371 kts | 317° |
| 2026-05-05 16:07 | 50.23412 | 8.63214 | 23844 ft | 368 kts | 318° |
| 2026-05-05 16:07 | 50.25383 | 8.60679 | 23350 ft | 365 kts | 318° |
| 2026-05-05 16:07 | 50.27310 | 8.58126 | 22830 ft | 360 kts | 317° |
| 2026-05-05 16:08 | 50.29202 | 8.55596 | 22350 ft | 354 kts | 317° |
| 2026-05-05 16:08 | 50.31079 | 8.53131 | 21889 ft | 351 kts | 318° |
| 2026-05-05 16:08 | 50.32951 | 8.50689 | 21429 ft | 349 kts | 318° |
| 2026-05-05 16:08 | 50.34771 | 8.48275 | 20971 ft | 346 kts | 317° |
| 2026-05-05 16:09 | 50.36622 | 8.45808 | 20505 ft | 344 kts | 317° |
| 2026-05-05 16:09 | 50.38417 | 8.43439 | 20063 ft | 341 kts | 318° |
| 2026-05-05 16:09 | 50.40227 | 8.41051 | 19607 ft | 339 kts | 317° |
| 2026-05-05 16:09 | 50.42014 | 8.38672 | 19157 ft | 336 kts | 317° |
| 2026-05-05 16:10 | 50.43791 | 8.36305 | 18721 ft | 334 kts | 317° |
| 2026-05-05 16:10 | 50.45562 | 8.33964 | 18286 ft | 332 kts | 318° |
| 2026-05-05 16:10 | 50.47320 | 8.31633 | 17818 ft | 329 kts | 318° |
| 2026-05-05 16:10 | 50.49052 | 8.29301 | 17371 ft | 326 kts | 318° |
| 2026-05-05 16:11 | 50.50770 | 8.27008 | 16946 ft | 322 kts | 318° |
| 2026-05-05 16:11 | 50.55779 | 8.20114 | 15682 ft | 322 kts | 312° |
| 2026-05-05 16:12 | 50.57480 | 8.17802 | 15242 ft | 324 kts | 323° |
| 2026-05-05 16:12 | 50.61033 | 8.13546 | 14402 ft | 319 kts | 315° |
| 2026-05-05 16:13 | 50.65958 | 8.06707 | 13158 ft | 314 kts | 321° |
| 2026-05-05 16:13 | 50.67628 | 8.04510 | 12742 ft | 311 kts | 317° |
| 2026-05-05 16:13 | 50.69224 | 8.02233 | 12334 ft | 308 kts | 317° |
| 2026-05-05 16:14 | 50.72470 | 7.97910 | 11527 ft | 303 kts | 320° |
| 2026-05-05 16:14 | 50.75333 | 7.93222 | 10724 ft | 292 kts | 293° |
| 2026-05-05 16:15 | 50.75048 | 7.87245 | 10013 ft | 274 kts | 250° |
| 2026-05-05 16:15 | 50.74317 | 7.82390 | 9394 ft | 274 kts | 262° |
| 2026-05-05 16:16 | 50.73925 | 7.76438 | 8672 ft | 272 kts | 259° |
| 2026-05-05 16:16 | 50.73322 | 7.70531 | 7950 ft | 274 kts | 261° |
| 2026-05-05 16:17 | 50.72820 | 7.64633 | 7388 ft | 268 kts | 260° |
| 2026-05-05 16:17 | 50.72541 | 7.61747 | 7041 ft | 264 kts | 261° |
| 2026-05-05 16:18 | 50.72036 | 7.56097 | 6356 ft | 250 kts | 261° |
| 2026-05-05 16:18 | 50.71793 | 7.53472 | 6032 ft | 234 kts | 260° |
| 2026-05-05 16:18 | 50.71353 | 7.48734 | 5462 ft | 210 kts | 261° |
| 2026-05-05 16:19 | 50.71145 | 7.46459 | 5179 ft | 203 kts | 260° |
| 2026-05-05 16:19 | 50.70944 | 7.44284 | 4918 ft | 197 kts | 261° |
| 2026-05-05 16:19 | 50.70560 | 7.40065 | 4400 ft | 197 kts | 263° |
| 2026-05-05 16:20 | 50.71807 | 7.36259 | 3791 ft | 214 kts | 317° |
| 2026-05-05 16:20 | 50.74049 | 7.33142 | 3050 ft | 206 kts | 319° |
| 2026-05-05 16:21 | 50.75959 | 7.30461 | 2811 ft | 170 kts | 321° |
| 2026-05-05 16:22 | 50.78157 | 7.27266 | 2271 ft | 133 kts | 318° |
| 2026-05-05 16:22 | 50.79457 | 7.25289 | 1955 ft | 127 kts | 320° |
| 2026-05-05 16:23 | 50.80782 | 7.23417 | 1689 ft | 127 kts | 321° |
| 2026-05-05 16:23 | 50.81417 | 7.22482 | 1554 ft | 125 kts | 320° |
| 2026-05-05 16:23 | 50.82676 | 7.20675 | 1291 ft | 120 kts | 309° |
| 2026-05-05 16:24 | 50.83057 | 7.19484 | 1273 ft | 122 kts | 297° |
| 2026-05-05 16:24 | 50.83406 | 7.18268 | 1207 ft | 120 kts | 295° |
| 2026-05-05 16:24 | 50.84336 | 7.16090 | 941 ft | 119 kts | 316° |
| 2026-05-05 16:25 | 50.84931 | 7.15201 | 650 ft | 117 kts | 317° |
| 2026-05-05 16:25 | 50.86098 | 7.13516 | 250 ft | 95 kts | 317° |
| 2026-05-05 16:25 | 50.86485 | 7.12956 | 235 ft | 45 kts | 317° |
| 2026-05-05 16:26 | 50.86778 | 7.12533 | 226 ft | 16 kts | 318° |
| 2026-05-05 16:26 | 50.86906 | 7.12348 | 229 ft | 9 kts | 317° |
| 2026-05-05 16:27 | 50.86964 | 7.12265 | 228 ft | 13 kts | 317° |
| 2026-05-05 16:27 | 50.87035 | 7.12164 | 229 ft | 14 kts | 321° |
| 2026-05-05 16:27 | 50.87122 | 7.12189 | 228 ft | 11 kts | 41° |
| 2026-05-05 16:27 | 50.87169 | 7.12240 | 229 ft | 6 kts | 28° |
| 2026-05-05 16:28 | 50.87201 | 7.12225 | 227 ft | 8 kts | 321° |
| 2026-05-05 16:28 | 50.87250 | 7.12217 | 225 ft | 6 kts | 21° |
| 2026-05-05 16:28 | 50.87292 | 7.12236 | 224 ft | 9 kts | 0° |
| 2026-05-05 16:28 | 50.87323 | 7.12222 | 224 ft | 1 kts | 262° |
| 2026-05-05 16:29 | 50.87313 | 7.12220 | 223 ft | 0 kts | 156° |